Aviation Digital Data Service (ADDS)

Output produced by TAFs form (1332 UTC 24 April 2014)
found at http://www.aviationweather.gov/adds/tafs/
 
KSBY 241120Z 2412/2512 32008KT P6SM SKC 
     FM241400 33014G21KT P6SM SCT150 
     FM242300 29004KT P6SM BKN250 
     FM250200 VRB02KT P6SM BKN250